sensor_id;sensor_type;location;lat;lon;timestamp;pressure;altitude;pressure_sealevel;temperature;humidity
76694;BME280;69667;52.136;5.424;2023-09-12T00:02:18;101367.97;;;19.43;97.32
76694;BME280;69667;52.136;5.424;2023-09-12T00:04:47;101363.53;;;19.42;97.46
76694;BME280;69667;52.136;5.424;2023-09-12T00:07:18;101364.53;;;19.41;97.29
76694;BME280;69667;52.136;5.424;2023-09-12T00:09:46;101360.56;;;19.36;97.33
76694;BME280;69667;52.136;5.424;2023-09-12T00:12:15;101361.03;;;19.31;97.83
76694;BME280;69667;52.136;5.424;2023-09-12T00:14:44;101356.00;;;19.27;97.71
76694;BME280;69667;52.136;5.424;2023-09-12T00:17:12;101352.41;;;19.26;97.91
76694;BME280;69667;52.136;5.424;2023-09-12T00:19:40;101342.63;;;19.24;97.66
76694;BME280;69667;52.136;5.424;2023-09-12T00:22:08;101341.78;;;19.23;98.19
76694;BME280;69667;52.136;5.424;2023-09-12T00:24:36;101355.78;;;19.20;97.69
76694;BME280;69667;52.136;5.424;2023-09-12T00:27:05;101344.44;;;19.15;97.58
76694;BME280;69667;52.136;5.424;2023-09-12T00:29:33;101337.72;;;19.10;97.85
76694;BME280;69667;52.136;5.424;2023-09-12T00:32:01;101336.66;;;19.03;97.71
76694;BME280;69667;52.136;5.424;2023-09-12T00:34:29;101340.72;;;18.99;97.93
76694;BME280;69667;52.136;5.424;2023-09-12T00:36:58;101341.03;;;18.96;97.82
76694;BME280;69667;52.136;5.424;2023-09-12T00:39:26;101335.50;;;18.87;97.51
76694;BME280;69667;52.136;5.424;2023-09-12T00:41:54;101333.91;;;18.85;98.07
76694;BME280;69667;52.136;5.424;2023-09-12T00:44:22;101346.72;;;18.84;97.68
76694;BME280;69667;52.136;5.424;2023-09-12T00:46:51;101346.16;;;18.81;97.81
76694;BME280;69667;52.136;5.424;2023-09-12T00:49:22;101356.72;;;18.76;97.80
76694;BME280;69667;52.136;5.424;2023-09-12T00:51:50;101352.75;;;18.70;98.06
76694;BME280;69667;52.136;5.424;2023-09-12T00:54:19;101352.03;;;18.68;97.97
76694;BME280;69667;52.136;5.424;2023-09-12T00:56:47;101351.31;;;18.66;97.72
76694;BME280;69667;52.136;5.424;2023-09-12T00:59:17;101360.16;;;18.60;97.99
76694;BME280;69667;52.136;5.424;2023-09-12T01:01:47;101363.06;;;18.59;98.19
76694;BME280;69667;52.136;5.424;2023-09-12T01:04:15;101353.81;;;18.60;98.72
76694;BME280;69667;52.136;5.424;2023-09-12T01:07:02;101356.72;;;18.58;98.65
76694;BME280;69667;52.136;5.424;2023-09-12T01:09:33;101359.44;;;18.58;98.39
76694;BME280;69667;52.136;5.424;2023-09-12T01:12:02;101353.25;;;18.56;98.86
76694;BME280;69667;52.136;5.424;2023-09-12T01:14:30;101354.28;;;18.55;98.86
76694;BME280;69667;52.136;5.424;2023-09-12T01:16:59;101354.44;;;18.54;98.49
76694;BME280;69667;52.136;5.424;2023-09-12T01:19:31;101348.44;;;18.50;98.84
76694;BME280;69667;52.136;5.424;2023-09-12T01:25:07;101349.41;;;18.49;99.37
76694;BME280;69667;52.136;5.424;2023-09-12T01:27:41;101343.28;;;18.47;99.17
76694;BME280;69667;52.136;5.424;2023-09-12T01:30:12;101344.25;;;18.46;99.30
76694;BME280;69667;52.136;5.424;2023-09-12T01:32:44;101359.97;;;18.44;99.78
76694;BME280;69667;52.136;5.424;2023-09-12T01:35:13;101355.34;;;18.45;99.47
76694;BME280;69667;52.136;5.424;2023-09-12T01:37:41;101351.75;;;18.44;99.52
76694;BME280;69667;52.136;5.424;2023-09-12T01:40:10;101353.66;;;18.44;99.69
76694;BME280;69667;52.136;5.424;2023-09-12T01:42:43;101350.34;;;18.40;99.75
76694;BME280;69667;52.136;5.424;2023-09-12T01:45:17;101351.63;;;18.36;99.88
76694;BME280;69667;52.136;5.424;2023-09-12T01:47:50;101344.63;;;18.34;99.57
76694;BME280;69667;52.136;5.424;2023-09-12T01:50:20;101345.59;;;18.33;100.00
76694;BME280;69667;52.136;5.424;2023-09-12T01:52:49;101342.72;;;18.34;100.00
76694;BME280;69667;52.136;5.424;2023-09-12T01:55:18;101346.31;;;18.35;100.00
76694;BME280;69667;52.136;5.424;2023-09-12T01:57:47;101348.75;;;18.38;100.00
76694;BME280;69667;52.136;5.424;2023-09-12T02:00:18;101343.44;;;18.36;100.00
76694;BME280;69667;52.136;5.424;2023-09-12T02:02:48;101343.75;;;18.33;100.00
76694;BME280;69667;52.136;5.424;2023-09-12T02:05:19;101351.22;;;18.31;100.00
76694;BME280;69667;52.136;5.424;2023-09-12T02:07:48;101347.50;;;18.32;100.00
76694;BME280;69667;52.136;5.424;2023-09-12T02:10:16;101333.84;;;18.32;100.00
76694;BME280;69667;52.136;5.424;2023-09-12T02:12:44;101333.69;;;18.34;100.00
76694;BME280;69667;52.136;5.424;2023-09-12T02:15:13;101340.28;;;18.31;100.00
76694;BME280;69667;52.136;5.424;2023-09-12T02:17:43;101335.13;;;18.28;100.00
76694;BME280;69667;52.136;5.424;2023-09-12T02:20:12;101335.44;;;18.25;100.00
76694;BME280;69667;52.136;5.424;2023-09-12T02:22:40;101335.59;;;18.24;100.00
76694;BME280;69667;52.136;5.424;2023-09-12T02:25:08;101336.03;;;18.19;100.00
76694;BME280;69667;52.136;5.424;2023-09-12T02:27:36;101329.03;;;18.17;100.00
76694;BME280;69667;52.136;5.424;2023-09-12T02:30:05;101338.78;;;18.19;100.00
76694;BME280;69667;52.136;5.424;2023-09-12T02:32:34;101328.16;;;18.16;100.00
76694;BME280;69667;52.136;5.424;2023-09-12T02:35:02;101335.50;;;18.16;100.00
76694;BME280;69667;52.136;5.424;2023-09-12T02:37:31;101336.34;;;18.16;100.00
76694;BME280;69667;52.136;5.424;2023-09-12T02:39:59;101343.84;;;18.14;100.00
76694;BME280;69667;52.136;5.424;2023-09-12T02:42:27;101345.88;;;18.12;100.00
76694;BME280;69667;52.136;5.424;2023-09-12T02:44:56;101344.44;;;18.08;100.00
76694;BME280;69667;52.136;5.424;2023-09-12T02:47:24;101343.59;;;18.08;100.00
76694;BME280;69667;52.136;5.424;2023-09-12T02:49:52;101348.38;;;18.06;100.00
76694;BME280;69667;52.136;5.424;2023-09-12T02:52:20;101345.91;;;18.03;100.00
76694;BME280;69667;52.136;5.424;2023-09-12T02:54:48;101347.41;;;17.97;100.00
76694;BME280;69667;52.136;5.424;2023-09-12T02:57:17;101351.41;;;17.93;100.00
76694;BME280;69667;52.136;5.424;2023-09-12T02:59:45;101347.97;;;17.91;100.00
76694;BME280;69667;52.136;5.424;2023-09-12T03:02:13;101338.53;;;17.86;100.00
76694;BME280;69667;52.136;5.424;2023-09-12T03:04:42;101348.59;;;17.85;100.00
76694;BME280;69667;52.136;5.424;2023-09-12T03:07:10;101344.25;;;17.83;100.00
76694;BME280;69667;52.136;5.424;2023-09-12T03:09:39;101349.47;;;17.76;100.00
76694;BME280;69667;52.136;5.424;2023-09-12T03:12:07;101354.50;;;17.71;100.00
76694;BME280;69667;52.136;5.424;2023-09-12T03:14:36;101358.56;;;17.67;100.00
76694;BME280;69667;52.136;5.424;2023-09-12T03:17:05;101351.66;;;17.63;100.00
76694;BME280;69667;52.136;5.424;2023-09-12T03:19:34;101344.50;;;17.62;99.94
76694;BME280;69667;52.136;5.424;2023-09-12T03:22:02;101350.38;;;17.57;100.00
76694;BME280;69667;52.136;5.424;2023-09-12T03:24:30;101352.56;;;17.54;100.00
76694;BME280;69667;52.136;5.424;2023-09-12T03:26:58;101353.88;;;17.50;100.00
76694;BME280;69667;52.136;5.424;2023-09-12T03:29:27;101349.53;;;17.47;100.00
76694;BME280;69667;52.136;5.424;2023-09-12T03:31:55;101341.50;;;17.46;100.00
76694;BME280;69667;52.136;5.424;2023-09-12T03:34:23;101338.78;;;17.46;99.93
76694;BME280;69667;52.136;5.424;2023-09-12T03:36:52;101337.03;;;17.45;100.00
76694;BME280;69667;52.136;5.424;2023-09-12T03:39:20;101333.44;;;17.44;100.00
76694;BME280;69667;52.136;5.424;2023-09-12T03:41:48;101334.31;;;17.45;100.00
76694;BME280;69667;52.136;5.424;2023-09-12T03:44:16;101346.97;;;17.46;100.00
76694;BME280;69667;52.136;5.424;2023-09-12T03:46:45;101343.25;;;17.47;100.00
76694;BME280;69667;52.136;5.424;2023-09-12T03:49:13;101340.22;;;17.50;100.00
76694;BME280;69667;52.136;5.424;2023-09-12T03:51:42;101346.09;;;17.55;100.00
76694;BME280;69667;52.136;5.424;2023-09-12T03:54:11;101335.03;;;17.56;100.00
76694;BME280;69667;52.136;5.424;2023-09-12T03:56:39;101329.09;;;17.61;100.00
76694;BME280;69667;52.136;5.424;2023-09-12T03:59:10;101333.13;;;17.66;100.00
76694;BME280;69667;52.136;5.424;2023-09-12T04:01:39;101330.25;;;17.68;100.00
76694;BME280;69667;52.136;5.424;2023-09-12T04:04:07;101333.69;;;17.70;100.00
76694;BME280;69667;52.136;5.424;2023-09-12T04:06:36;101329.09;;;17.71;100.00
76694;BME280;69667;52.136;5.424;2023-09-12T04:09:04;101331.69;;;17.72;100.00
76694;BME280;69667;52.136;5.424;2023-09-12T04:11:34;101332.41;;;17.74;100.00
76694;BME280;69667;52.136;5.424;2023-09-12T04:14:16;101337.72;;;17.76;100.00
76694;BME280;69667;52.136;5.424;2023-09-12T04:16:44;101338.53;;;17.76;100.00
76694;BME280;69667;52.136;5.424;2023-09-12T04:19:13;101327.94;;;17.73;100.00
76694;BME280;69667;52.136;5.424;2023-09-12T04:21:41;101329.34;;;17.77;100.00
76694;BME280;69667;52.136;5.424;2023-09-12T04:24:10;101330.19;;;17.78;100.00
76694;BME280;69667;52.136;5.424;2023-09-12T04:26:38;101327.34;;;17.79;100.00
76694;BME280;69667;52.136;5.424;2023-09-12T04:29:07;101324.47;;;17.81;100.00
76694;BME280;69667;52.136;5.424;2023-09-12T04:31:35;101312.66;;;17.80;100.00
76694;BME280;69667;52.136;5.424;2023-09-12T04:34:04;101308.50;;;17.76;100.00
76694;BME280;69667;52.136;5.424;2023-09-12T04:36:33;101310.97;;;17.69;100.00
76694;BME280;69667;52.136;5.424;2023-09-12T04:39:01;101312.31;;;17.65;100.00
76694;BME280;69667;52.136;5.424;2023-09-12T04:41:29;101316.31;;;17.61;100.00
76694;BME280;69667;52.136;5.424;2023-09-12T04:43:58;101310.31;;;17.58;100.00
76694;BME280;69667;52.136;5.424;2023-09-12T04:46:28;101313.03;;;17.58;100.00
76694;BME280;69667;52.136;5.424;2023-09-12T04:48:56;101314.88;;;17.57;100.00
76694;BME280;69667;52.136;5.424;2023-09-12T04:51:24;101311.63;;;17.54;100.00
76694;BME280;69667;52.136;5.424;2023-09-12T04:53:54;101312.91;;;17.50;100.00
76694;BME280;69667;52.136;5.424;2023-09-12T04:56:23;101315.94;;;17.47;100.00
76694;BME280;69667;52.136;5.424;2023-09-12T04:58:52;101322.41;;;17.46;100.00
76694;BME280;69667;52.136;5.424;2023-09-12T05:01:20;101313.38;;;17.45;100.00
76694;BME280;69667;52.136;5.424;2023-09-12T05:03:48;101301.56;;;17.45;100.00
76694;BME280;69667;52.136;5.424;2023-09-12T05:06:17;101308.03;;;17.44;100.00
76694;BME280;69667;52.136;5.424;2023-09-12T05:08:45;101305.41;;;17.42;100.00
76694;BME280;69667;52.136;5.424;2023-09-12T05:11:13;101315.81;;;17.39;100.00
76694;BME280;69667;52.136;5.424;2023-09-12T05:13:42;101317.97;;;17.35;100.00
76694;BME280;69667;52.136;5.424;2023-09-12T05:16:11;101314.66;;;17.32;100.00
76694;BME280;69667;52.136;5.424;2023-09-12T05:18:39;101318.53;;;17.29;100.00
76694;BME280;69667;52.136;5.424;2023-09-12T05:21:08;101326.88;;;17.28;100.00
76694;BME280;69667;52.136;5.424;2023-09-12T05:23:36;101329.75;;;17.26;100.00
76694;BME280;69667;52.136;5.424;2023-09-12T05:26:04;101335.94;;;17.28;100.00
76694;BME280;69667;52.136;5.424;2023-09-12T05:28:34;101329.59;;;17.28;100.00
76694;BME280;69667;52.136;5.424;2023-09-12T05:31:03;101333.03;;;17.30;100.00
76694;BME280;69667;52.136;5.424;2023-09-12T05:33:32;101321.25;;;17.29;100.00
76694;BME280;69667;52.136;5.424;2023-09-12T05:36:02;101337.63;;;17.29;100.00
76694;BME280;69667;52.136;5.424;2023-09-12T05:38:30;101333.34;;;17.27;100.00
76694;BME280;69667;52.136;5.424;2023-09-12T05:40:58;101332.91;;;17.22;100.00
76694;BME280;69667;52.136;5.424;2023-09-12T05:43:27;101332.91;;;17.22;100.00
76694;BME280;69667;52.136;5.424;2023-09-12T05:45:55;101330.19;;;17.22;100.00
76694;BME280;69667;52.136;5.424;2023-09-12T05:48:25;101331.91;;;17.23;100.00
76694;BME280;69667;52.136;5.424;2023-09-12T05:50:53;101333.34;;;17.27;100.00
76694;BME280;69667;52.136;5.424;2023-09-12T05:53:23;101340.94;;;17.33;100.00
76694;BME280;69667;52.136;5.424;2023-09-12T05:55:51;101337.34;;;17.42;100.00
76694;BME280;69667;52.136;5.424;2023-09-12T05:58:20;101322.97;;;17.49;100.00
76694;BME280;69667;52.136;5.424;2023-09-12T06:00:48;101316.94;;;17.55;100.00
76694;BME280;69667;52.136;5.424;2023-09-12T06:03:16;101326.53;;;17.59;100.00
76694;BME280;69667;52.136;5.424;2023-09-12T06:05:45;101333.59;;;17.62;100.00
76694;BME280;69667;52.136;5.424;2023-09-12T06:08:13;101339.47;;;17.67;100.00
76694;BME280;69667;52.136;5.424;2023-09-12T06:10:41;101349.06;;;17.71;100.00
76694;BME280;69667;52.136;5.424;2023-09-12T06:13:10;101347.31;;;17.80;100.00
76694;BME280;69667;52.136;5.424;2023-09-12T06:15:39;101360.94;;;17.89;100.00
76694;BME280;69667;52.136;5.424;2023-09-12T06:18:09;101363.22;;;17.94;100.00
76694;BME280;69667;52.136;5.424;2023-09-12T06:20:37;101364.94;;;17.95;100.00
76694;BME280;69667;52.136;5.424;2023-09-12T06:23:06;101365.78;;;17.95;100.00
76694;BME280;69667;52.136;5.424;2023-09-12T06:25:34;101368.53;;;17.95;100.00
76694;BME280;69667;52.136;5.424;2023-09-12T06:28:03;101368.22;;;17.98;100.00
76694;BME280;69667;52.136;5.424;2023-09-12T06:30:31;101363.16;;;18.03;100.00
76694;BME280;69667;52.136;5.424;2023-09-12T06:32:59;101361.88;;;18.07;100.00
76694;BME280;69667;52.136;5.424;2023-09-12T06:35:28;101366.31;;;18.08;100.00
76694;BME280;69667;52.136;5.424;2023-09-12T06:37:56;101364.84;;;18.14;100.00
76694;BME280;69667;52.136;5.424;2023-09-12T06:40:24;101364.94;;;18.22;100.00
76694;BME280;69667;52.136;5.424;2023-09-12T06:42:53;101365.91;;;18.30;100.00
76694;BME280;69667;52.136;5.424;2023-09-12T06:45:21;101371.47;;;18.38;100.00
76694;BME280;69667;52.136;5.424;2023-09-12T06:47:49;101371.91;;;18.43;100.00
76694;BME280;69667;52.136;5.424;2023-09-12T06:50:18;101366.53;;;18.51;100.00
76694;BME280;69667;52.136;5.424;2023-09-12T06:52:46;101372.09;;;18.59;100.00
76694;BME280;69667;52.136;5.424;2023-09-12T06:55:14;101366.75;;;18.67;100.00
76694;BME280;69667;52.136;5.424;2023-09-12T06:57:42;101365.25;;;18.73;100.00
76694;BME280;69667;52.136;5.424;2023-09-12T07:00:11;101370.94;;;18.79;100.00
76694;BME280;69667;52.136;5.424;2023-09-12T07:02:40;101365.72;;;18.86;100.00
76694;BME280;69667;52.136;5.424;2023-09-12T07:05:08;101379.66;;;18.92;99.90
76694;BME280;69667;52.136;5.424;2023-09-12T07:07:37;101381.03;;;18.97;99.93
76694;BME280;69667;52.136;5.424;2023-09-12T07:10:06;101387.53;;;18.96;99.87
76694;BME280;69667;52.136;5.424;2023-09-12T07:12:50;101385.38;;;18.99;99.69
76694;BME280;69667;52.136;5.424;2023-09-12T07:15:18;101383.47;;;19.00;99.22
76694;BME280;69667;52.136;5.424;2023-09-12T07:17:47;101387.22;;;18.99;99.81
76694;BME280;69667;52.136;5.424;2023-09-12T07:20:15;101372.34;;;19.01;99.52
76694;BME280;69667;52.136;5.424;2023-09-12T07:22:45;101373.47;;;19.08;99.79
76694;BME280;69667;52.136;5.424;2023-09-12T07:25:14;101362.06;;;19.13;99.95
76694;BME280;69667;52.136;5.424;2023-09-12T07:27:42;101368.53;;;19.12;99.56
76694;BME280;69667;52.136;5.424;2023-09-12T07:30:11;101379.31;;;19.13;99.58
76694;BME280;69667;52.136;5.424;2023-09-12T07:32:39;101381.72;;;19.16;99.31
76694;BME280;69667;52.136;5.424;2023-09-12T07:35:07;101383.31;;;19.19;99.03
76694;BME280;69667;52.136;5.424;2023-09-12T07:37:36;101381.59;;;19.18;99.42
76694;BME280;69667;52.136;5.424;2023-09-12T07:40:04;101382.44;;;19.18;99.13
76694;BME280;69667;52.136;5.424;2023-09-12T07:42:37;101376.66;;;19.21;98.65
76694;BME280;69667;52.136;5.424;2023-09-12T07:45:06;101377.63;;;19.30;99.19
76694;BME280;69667;52.136;5.424;2023-09-12T07:47:35;101379.69;;;19.53;98.83
76694;BME280;69667;52.136;5.424;2023-09-12T07:50:03;101385.56;;;19.84;98.24
76694;BME280;69667;52.136;5.424;2023-09-12T07:52:34;101378.31;;;20.26;97.72
76694;BME280;69667;52.136;5.424;2023-09-12T07:55:03;101384.97;;;20.73;96.55
76694;BME280;69667;52.136;5.424;2023-09-12T07:57:31;101369.47;;;21.30;94.55
76694;BME280;69667;52.136;5.424;2023-09-12T08:00:01;101366.16;;;22.37;89.73
76694;BME280;69667;52.136;5.424;2023-09-12T08:02:37;101365.41;;;22.05;88.66
76694;BME280;69667;52.136;5.424;2023-09-12T08:05:06;101372.03;;;21.80;89.60
76694;BME280;69667;52.136;5.424;2023-09-12T08:07:36;101378.19;;;21.66;89.74
76694;BME280;69667;52.136;5.424;2023-09-12T08:10:05;101387.66;;;21.55;89.86
76694;BME280;69667;52.136;5.424;2023-09-12T08:12:33;101389.53;;;21.47;89.96
76694;BME280;69667;52.136;5.424;2023-09-12T08:15:06;101397.28;;;21.27;89.92
76694;BME280;69667;52.136;5.424;2023-09-12T08:17:34;101401.91;;;21.26;90.81
76694;BME280;69667;52.136;5.424;2023-09-12T08:20:03;101404.50;;;21.36;90.12
76694;BME280;69667;52.136;5.424;2023-09-12T08:22:32;101404.31;;;21.54;91.17
76694;BME280;69667;52.136;5.424;2023-09-12T08:25:00;101408.09;;;21.77;90.38
76694;BME280;69667;52.136;5.424;2023-09-12T08:27:29;101397.63;;;21.80;89.36
76694;BME280;69667;52.136;5.424;2023-09-12T08:29:57;101402.00;;;22.13;88.97
76694;BME280;69667;52.136;5.424;2023-09-12T08:32:25;101401.78;;;22.78;85.43
76694;BME280;69667;52.136;5.424;2023-09-12T08:34:53;101402.34;;;22.73;85.68
76694;BME280;69667;52.136;5.424;2023-09-12T08:37:22;101404.44;;;22.63;85.25
76694;BME280;69667;52.136;5.424;2023-09-12T08:39:50;101400.72;;;22.40;86.08
76694;BME280;69667;52.136;5.424;2023-09-12T08:42:26;101399.94;;;22.15;86.75
76694;BME280;69667;52.136;5.424;2023-09-12T08:44:55;101392.78;;;22.06;87.11
76694;BME280;69667;52.136;5.424;2023-09-12T08:47:25;101400.50;;;22.03;87.85
76694;BME280;69667;52.136;5.424;2023-09-12T08:49:54;101391.88;;;22.14;88.14
76694;BME280;69667;52.136;5.424;2023-09-12T08:52:22;101396.09;;;22.32;88.06
76694;BME280;69667;52.136;5.424;2023-09-12T08:54:50;101398.72;;;22.73;86.69
76694;BME280;69667;52.136;5.424;2023-09-12T08:57:18;101400.94;;;23.30;85.55
76694;BME280;69667;52.136;5.424;2023-09-12T08:59:47;101398.41;;;23.66;82.84
76694;BME280;69667;52.136;5.424;2023-09-12T09:02:16;101394.75;;;23.28;82.67
76694;BME280;69667;52.136;5.424;2023-09-12T09:04:46;101385.13;;;24.86;77.34
76694;BME280;69667;52.136;5.424;2023-09-12T09:07:18;101379.72;;;26.86;70.84
76694;BME280;69667;52.136;5.424;2023-09-12T09:09:47;101383.69;;;26.30;69.48
76694;BME280;69667;52.136;5.424;2023-09-12T09:12:19;101384.72;;;26.63;71.25
76694;BME280;69667;52.136;5.424;2023-09-12T09:14:47;101388.31;;;26.57;69.56
76694;BME280;69667;52.136;5.424;2023-09-12T09:17:15;101388.97;;;25.69;72.01
76694;BME280;69667;52.136;5.424;2023-09-12T09:20:01;101384.88;;;26.14;70.54
76694;BME280;69667;52.136;5.424;2023-09-12T09:22:29;101399.94;;;27.66;67.08
76694;BME280;69667;52.136;5.424;2023-09-12T09:25:09;101389.09;;;27.97;65.87
76694;BME280;69667;52.136;5.424;2023-09-12T09:27:38;101398.25;;;27.52;65.31
76694;BME280;69667;52.136;5.424;2023-09-12T09:30:07;101400.44;;;27.03;67.82
76694;BME280;69667;52.136;5.424;2023-09-12T09:32:36;101406.81;;;26.50;68.56
76694;BME280;69667;52.136;5.424;2023-09-12T09:35:05;101406.63;;;25.68;70.10
76694;BME280;69667;52.136;5.424;2023-09-12T09:37:34;101405.41;;;25.77;69.29
76694;BME280;69667;52.136;5.424;2023-09-12T09:40:05;101414.72;;;24.92;72.54
76694;BME280;69667;52.136;5.424;2023-09-12T09:42:34;101408.50;;;25.05;72.93
76694;BME280;69667;52.136;5.424;2023-09-12T09:45:03;101409.16;;;24.71;74.08
76694;BME280;69667;52.136;5.424;2023-09-12T09:47:31;101402.31;;;25.02;73.24
76694;BME280;69667;52.136;5.424;2023-09-12T09:50:00;101406.28;;;24.64;73.86
76694;BME280;69667;52.136;5.424;2023-09-12T09:52:28;101400.19;;;24.83;74.21
76694;BME280;69667;52.136;5.424;2023-09-12T09:54:56;101398.19;;;24.77;73.63
76694;BME280;69667;52.136;5.424;2023-09-12T09:57:26;101405.69;;;25.19;72.25
76694;BME280;69667;52.136;5.424;2023-09-12T09:59:54;101406.66;;;24.76;73.37
76694;BME280;69667;52.136;5.424;2023-09-12T10:02:25;101412.00;;;24.77;73.96
76694;BME280;69667;52.136;5.424;2023-09-12T10:04:56;101413.19;;;24.68;74.25
76694;BME280;69667;52.136;5.424;2023-09-12T10:07:27;101413.81;;;24.41;75.82
76694;BME280;69667;52.136;5.424;2023-09-12T10:10:02;101417.34;;;24.35;75.97
76694;BME280;69667;52.136;5.424;2023-09-12T10:12:31;101418.59;;;23.96;76.52
76694;BME280;69667;52.136;5.424;2023-09-12T10:15:03;101422.25;;;23.73;77.32
76694;BME280;69667;52.136;5.424;2023-09-12T10:17:36;101423.31;;;23.72;77.65
76694;BME280;69667;52.136;5.424;2023-09-12T10:20:12;101421.06;;;23.76;78.26
76694;BME280;69667;52.136;5.424;2023-09-12T10:22:56;101412.84;;;24.49;75.03
76694;BME280;69667;52.136;5.424;2023-09-12T10:25:28;101425.91;;;24.26;76.21
76694;BME280;69667;52.136;5.424;2023-09-12T10:27:57;101426.69;;;23.83;75.61
76694;BME280;69667;52.136;5.424;2023-09-12T10:30:25;101412.78;;;24.42;75.84
76694;BME280;69667;52.136;5.424;2023-09-12T10:32:55;101402.34;;;26.49;68.06
76694;BME280;69667;52.136;5.424;2023-09-12T10:35:24;101394.59;;;27.65;65.79
76694;BME280;69667;52.136;5.424;2023-09-12T10:37:52;101384.88;;;29.47;60.73
76694;BME280;69667;52.136;5.424;2023-09-12T10:40:22;101391.19;;;30.52;55.48
76694;BME280;69667;52.136;5.424;2023-09-12T10:42:51;101385.63;;;30.52;53.64
76694;BME280;69667;52.136;5.424;2023-09-12T10:45:22;101400.38;;;31.37;51.90
76694;BME280;69667;52.136;5.424;2023-09-12T10:47:50;101397.25;;;31.15;52.13
76694;BME280;69667;52.136;5.424;2023-09-12T10:50:19;101398.31;;;31.03;52.08
76694;BME280;69667;52.136;5.424;2023-09-12T10:52:48;101403.97;;;31.55;52.39
76694;BME280;69667;52.136;5.424;2023-09-12T10:55:17;101406.47;;;31.34;51.35
76694;BME280;69667;52.136;5.424;2023-09-12T10:58:21;101404.97;;;31.31;52.86
76694;BME280;69667;52.136;5.424;2023-09-12T11:01:21;101411.63;;;31.30;53.06
76694;BME280;69667;52.136;5.424;2023-09-12T11:03:52;101396.88;;;31.12;53.07
76694;BME280;69667;52.136;5.424;2023-09-12T11:06:22;101403.94;;;30.60;53.22
76694;BME280;69667;52.136;5.424;2023-09-12T11:11:47;101412.53;;;27.88;59.62
76694;BME280;69667;52.136;5.424;2023-09-12T11:14:16;101405.00;;;28.41;60.20
76694;BME280;69667;52.136;5.424;2023-09-12T11:19:45;101392.81;;;29.06;57.91
76694;BME280;69667;52.136;5.424;2023-09-12T11:22:27;101380.59;;;29.13;57.52
76694;BME280;69667;52.136;5.424;2023-09-12T11:24:56;101378.72;;;29.01;57.27
76694;BME280;69667;52.136;5.424;2023-09-12T11:28:16;101370.16;;;28.58;56.11
76694;BME280;69667;52.136;5.424;2023-09-12T11:30:23;101365.78;;;28.11;59.77
76694;BME280;69667;52.136;5.424;2023-09-12T11:33:05;101366.44;;;28.00;60.20
76694;BME280;69667;52.136;5.424;2023-09-12T11:35:39;101366.44;;;27.61;58.61
76694;BME280;69667;52.136;5.424;2023-09-12T11:38:10;101373.38;;;26.98;60.61
76694;BME280;69667;52.136;5.424;2023-09-12T11:43:06;101372.22;;;26.73;63.08
76694;BME280;69667;52.136;5.424;2023-09-12T11:45:42;101368.38;;;26.34;62.92
76694;BME280;69667;52.136;5.424;2023-09-12T11:48:11;101371.69;;;26.16;65.80
76694;BME280;69667;52.136;5.424;2023-09-12T11:50:39;101377.97;;;26.38;64.71
76694;BME280;69667;52.136;5.424;2023-09-12T11:53:10;101366.59;;;26.60;65.26
76694;BME280;69667;52.136;5.424;2023-09-12T11:55:46;101369.69;;;26.85;64.92
76694;BME280;69667;52.136;5.424;2023-09-12T11:58:16;101374.19;;;26.92;63.99
76694;BME280;69667;52.136;5.424;2023-09-12T12:00:49;101376.47;;;26.76;64.11
76694;BME280;69667;52.136;5.424;2023-09-12T12:03:19;101376.72;;;26.87;64.21
76694;BME280;69667;52.136;5.424;2023-09-12T12:05:47;101379.78;;;26.58;64.17
76694;BME280;69667;52.136;5.424;2023-09-12T12:08:17;101371.56;;;26.37;65.39
76694;BME280;69667;52.136;5.424;2023-09-12T12:10:52;101370.31;;;26.40;64.60
76694;BME280;69667;52.136;5.424;2023-09-12T12:13:22;101375.06;;;26.93;63.67
76694;BME280;69667;52.136;5.424;2023-09-12T12:15:51;101371.22;;;26.94;61.84
76694;BME280;69667;52.136;5.424;2023-09-12T12:18:19;101361.72;;;26.22;60.41
76694;BME280;69667;52.136;5.424;2023-09-12T12:20:48;101360.03;;;25.99;62.70
76694;BME280;69667;52.136;5.424;2023-09-12T12:23:16;101361.66;;;25.87;62.84
76694;BME280;69667;52.136;5.424;2023-09-12T12:25:44;101357.81;;;25.82;63.25
76694;BME280;69667;52.136;5.424;2023-09-12T12:28:12;101350.25;;;26.31;61.33
76694;BME280;69667;52.136;5.424;2023-09-12T12:30:40;101346.56;;;26.65;62.23
76694;BME280;69667;52.136;5.424;2023-09-12T12:33:09;101350.97;;;27.00;62.39
76694;BME280;69667;52.136;5.424;2023-09-12T12:36:05;101349.75;;;27.22;62.16
76694;BME280;69667;52.136;5.424;2023-09-12T12:38:37;101346.09;;;27.08;59.54
76694;BME280;69667;52.136;5.424;2023-09-12T12:41:27;101347.59;;;27.17;61.15
76694;BME280;69667;52.136;5.424;2023-09-12T12:44:09;101338.47;;;27.43;60.80
76694;BME280;69667;52.136;5.424;2023-09-12T12:46:53;101334.63;;;27.70;58.21
76694;BME280;69667;52.136;5.424;2023-09-12T12:49:21;101328.88;;;27.91;58.19
76694;BME280;69667;52.136;5.424;2023-09-12T12:51:50;101322.44;;;28.04;58.46
76694;BME280;69667;52.136;5.424;2023-09-12T12:54:23;101330.06;;;28.21;57.28
76694;BME280;69667;52.136;5.424;2023-09-12T12:56:51;101326.06;;;28.04;58.04
76694;BME280;69667;52.136;5.424;2023-09-12T12:59:20;101331.22;;;28.07;57.42
76694;BME280;69667;52.136;5.424;2023-09-12T13:01:48;101339.75;;;27.67;57.01
76694;BME280;69667;52.136;5.424;2023-09-12T13:04:19;101334.41;;;27.32;57.94
76694;BME280;69667;52.136;5.424;2023-09-12T13:06:47;101346.75;;;27.17;58.34
76694;BME280;69667;52.136;5.424;2023-09-12T13:09:16;101343.06;;;26.84;58.57
76694;BME280;69667;52.136;5.424;2023-09-12T13:11:45;101345.28;;;26.61;60.59